sensor_id;sensor_type;location;lat;lon;timestamp;pressure;altitude;pressure_sealevel;temperature;humidity
28606;BME280;46498;49.968;7.754;2022-12-07T00:00:18;97137.00;;;1.39;100.00
28606;BME280;46498;49.968;7.754;2022-12-07T00:05:19;97141.00;;;1.39;100.00
28606;BME280;46498;49.968;7.754;2022-12-07T00:10:19;97120.00;;;1.40;100.00
28606;BME280;46498;49.968;7.754;2022-12-07T00:15:20;97125.00;;;1.45;100.00
28606;BME280;46498;49.968;7.754;2022-12-07T00:20:21;97124.00;;;1.44;100.00
28606;BME280;46498;49.968;7.754;2022-12-07T00:25:22;97115.00;;;1.43;100.00
28606;BME280;46498;49.968;7.754;2022-12-07T00:30:23;97109.00;;;1.48;100.00
28606;BME280;46498;49.968;7.754;2022-12-07T00:35:24;97097.00;;;1.47;100.00
28606;BME280;46498;49.968;7.754;2022-12-07T00:40:25;97100.00;;;1.39;100.00
28606;BME280;46498;49.968;7.754;2022-12-07T00:45:25;97096.00;;;1.28;100.00
28606;BME280;46498;49.968;7.754;2022-12-07T00:50:26;97098.00;;;1.20;100.00
28606;BME280;46498;49.968;7.754;2022-12-07T00:55:27;97093.00;;;1.24;100.00
28606;BME280;46498;49.968;7.754;2022-12-07T01:00:28;97097.00;;;1.25;100.00
28606;BME280;46498;49.968;7.754;2022-12-07T01:05:29;97083.00;;;1.32;100.00
28606;BME280;46498;49.968;7.754;2022-12-07T01:10:29;97076.00;;;1.32;100.00
28606;BME280;46498;49.968;7.754;2022-12-07T01:15:32;97081.00;;;1.35;100.00
28606;BME280;46498;49.968;7.754;2022-12-07T01:20:32;97073.00;;;1.44;100.00
28606;BME280;46498;49.968;7.754;2022-12-07T01:25:33;97067.00;;;1.45;100.00
28606;BME280;46498;49.968;7.754;2022-12-07T01:30:34;97055.00;;;1.51;100.00
28606;BME280;46498;49.968;7.754;2022-12-07T01:35:35;97058.00;;;1.51;100.00
28606;BME280;46498;49.968;7.754;2022-12-07T01:40:36;97064.00;;;1.59;100.00
28606;BME280;46498;49.968;7.754;2022-12-07T01:45:41;97075.00;;;1.63;100.00
28606;BME280;46498;49.968;7.754;2022-12-07T01:50:45;97067.00;;;1.61;100.00
28606;BME280;46498;49.968;7.754;2022-12-07T01:55:50;97074.00;;;1.64;100.00
28606;BME280;46498;49.968;7.754;2022-12-07T02:00:51;97071.00;;;1.75;100.00
28606;BME280;46498;49.968;7.754;2022-12-07T02:05:52;97070.00;;;1.75;100.00
28606;BME280;46498;49.968;7.754;2022-12-07T02:10:54;97059.00;;;1.73;100.00
28606;BME280;46498;49.968;7.754;2022-12-07T02:26:49;97052.00;;;1.78;100.00
28606;BME280;46498;49.968;7.754;2022-12-07T02:32:11;97055.00;;;1.77;100.00
28606;BME280;46498;49.968;7.754;2022-12-07T02:40:57;97055.00;;;1.84;100.00
28606;BME280;46498;49.968;7.754;2022-12-07T02:46:03;97050.00;;;1.79;100.00
28606;BME280;46498;49.968;7.754;2022-12-07T02:51:06;97048.00;;;1.83;100.00
28606;BME280;46498;49.968;7.754;2022-12-07T02:56:22;97051.00;;;1.75;100.00
28606;BME280;46498;49.968;7.754;2022-12-07T03:01:57;97047.00;;;1.72;100.00
28606;BME280;46498;49.968;7.754;2022-12-07T03:08:12;97038.00;;;1.70;100.00
28606;BME280;46498;49.968;7.754;2022-12-07T03:14:53;97045.00;;;1.67;100.00
28606;BME280;46498;49.968;7.754;2022-12-07T03:19:58;97038.00;;;1.68;100.00
28606;BME280;46498;49.968;7.754;2022-12-07T03:25:09;97025.00;;;1.72;100.00
28606;BME280;46498;49.968;7.754;2022-12-07T03:30:17;97029.00;;;1.68;100.00
28606;BME280;46498;49.968;7.754;2022-12-07T03:35:38;97033.00;;;1.67;100.00
28606;BME280;46498;49.968;7.754;2022-12-07T03:40:48;97036.00;;;1.63;100.00
28606;BME280;46498;49.968;7.754;2022-12-07T03:46:36;97030.00;;;1.58;100.00
28606;BME280;46498;49.968;7.754;2022-12-07T03:51:50;97033.00;;;1.57;100.00
28606;BME280;46498;49.968;7.754;2022-12-07T03:56:54;97028.00;;;1.60;100.00
28606;BME280;46498;49.968;7.754;2022-12-07T04:02:01;97023.00;;;1.57;100.00
28606;BME280;46498;49.968;7.754;2022-12-07T04:07:02;97017.00;;;1.51;100.00
28606;BME280;46498;49.968;7.754;2022-12-07T04:12:04;97019.00;;;1.51;100.00
28606;BME280;46498;49.968;7.754;2022-12-07T04:17:04;97016.00;;;1.47;100.00
28606;BME280;46498;49.968;7.754;2022-12-07T04:22:06;97014.00;;;1.42;100.00
28606;BME280;46498;49.968;7.754;2022-12-07T04:27:07;97011.00;;;1.49;100.00
28606;BME280;46498;49.968;7.754;2022-12-07T04:32:08;97013.00;;;1.52;100.00
28606;BME280;46498;49.968;7.754;2022-12-07T04:37:08;97019.00;;;1.54;100.00
28606;BME280;46498;49.968;7.754;2022-12-07T04:42:10;97014.00;;;1.58;100.00
28606;BME280;46498;49.968;7.754;2022-12-07T04:47:11;97006.00;;;1.63;100.00
28606;BME280;46498;49.968;7.754;2022-12-07T04:52:12;97013.00;;;1.66;100.00
28606;BME280;46498;49.968;7.754;2022-12-07T04:57:13;97006.00;;;1.66;100.00
28606;BME280;46498;49.968;7.754;2022-12-07T05:02:13;97011.00;;;1.70;100.00
28606;BME280;46498;49.968;7.754;2022-12-07T05:07:14;97001.00;;;1.74;100.00
28606;BME280;46498;49.968;7.754;2022-12-07T05:12:15;97003.00;;;1.70;100.00
28606;BME280;46498;49.968;7.754;2022-12-07T05:17:16;97002.00;;;1.66;100.00
28606;BME280;46498;49.968;7.754;2022-12-07T05:22:17;97003.00;;;1.63;100.00
28606;BME280;46498;49.968;7.754;2022-12-07T05:27:18;97006.00;;;1.67;100.00
28606;BME280;46498;49.968;7.754;2022-12-07T05:32:19;97013.00;;;1.71;100.00
28606;BME280;46498;49.968;7.754;2022-12-07T05:37:20;97016.00;;;1.80;100.00
28606;BME280;46498;49.968;7.754;2022-12-07T05:42:20;97016.00;;;1.75;100.00
28606;BME280;46498;49.968;7.754;2022-12-07T05:47:21;97015.00;;;1.82;100.00
28606;BME280;46498;49.968;7.754;2022-12-07T05:52:22;97019.00;;;1.81;100.00
28606;BME280;46498;49.968;7.754;2022-12-07T05:57:23;97019.00;;;1.83;100.00
28606;BME280;46498;49.968;7.754;2022-12-07T06:02:24;97009.00;;;1.84;100.00
28606;BME280;46498;49.968;7.754;2022-12-07T06:07:25;97027.00;;;1.90;100.00
28606;BME280;46498;49.968;7.754;2022-12-07T06:12:26;97020.00;;;1.91;100.00
28606;BME280;46498;49.968;7.754;2022-12-07T06:17:36;97016.00;;;1.78;100.00
28606;BME280;46498;49.968;7.754;2022-12-07T06:22:37;97018.00;;;1.82;100.00
28606;BME280;46498;49.968;7.754;2022-12-07T06:27:38;97016.00;;;1.81;100.00
28606;BME280;46498;49.968;7.754;2022-12-07T06:32:38;97024.00;;;1.79;100.00
28606;BME280;46498;49.968;7.754;2022-12-07T06:37:39;97024.00;;;1.74;100.00
28606;BME280;46498;49.968;7.754;2022-12-07T06:42:40;97021.00;;;1.76;100.00
28606;BME280;46498;49.968;7.754;2022-12-07T06:47:41;97017.00;;;1.72;100.00
28606;BME280;46498;49.968;7.754;2022-12-07T06:52:44;97020.00;;;1.82;100.00
28606;BME280;46498;49.968;7.754;2022-12-07T06:57:45;97016.00;;;1.80;100.00
28606;BME280;46498;49.968;7.754;2022-12-07T07:02:45;97018.00;;;1.67;100.00
28606;BME280;46498;49.968;7.754;2022-12-07T07:07:46;97028.00;;;1.67;100.00
28606;BME280;46498;49.968;7.754;2022-12-07T07:13:22;97032.00;;;1.68;100.00
28606;BME280;46498;49.968;7.754;2022-12-07T07:18:23;97038.00;;;1.70;100.00
28606;BME280;46498;49.968;7.754;2022-12-07T07:23:24;97039.00;;;1.75;100.00
28606;BME280;46498;49.968;7.754;2022-12-07T07:28:25;97042.00;;;1.79;100.00
28606;BME280;46498;49.968;7.754;2022-12-07T07:33:25;97044.00;;;1.91;100.00
28606;BME280;46498;49.968;7.754;2022-12-07T07:38:26;97053.00;;;1.90;100.00
28606;BME280;46498;49.968;7.754;2022-12-07T07:43:27;97051.00;;;1.88;100.00
28606;BME280;46498;49.968;7.754;2022-12-07T07:48:28;97047.00;;;1.93;100.00
28606;BME280;46498;49.968;7.754;2022-12-07T07:53:29;97052.00;;;2.06;100.00
28606;BME280;46498;49.968;7.754;2022-12-07T07:58:30;97049.00;;;2.22;100.00
28606;BME280;46498;49.968;7.754;2022-12-07T08:03:30;97049.00;;;2.37;100.00
28606;BME280;46498;49.968;7.754;2022-12-07T08:08:32;97064.00;;;2.21;100.00
28606;BME280;46498;49.968;7.754;2022-12-07T08:13:33;97054.00;;;2.21;100.00
28606;BME280;46498;49.968;7.754;2022-12-07T08:18:40;97060.00;;;2.37;100.00
28606;BME280;46498;49.968;7.754;2022-12-07T08:23:42;97064.00;;;2.75;100.00
28606;BME280;46498;49.968;7.754;2022-12-07T08:28:43;97070.00;;;2.74;100.00
28606;BME280;46498;49.968;7.754;2022-12-07T08:33:46;97070.00;;;2.69;100.00
28606;BME280;46498;49.968;7.754;2022-12-07T08:38:47;97070.00;;;2.55;100.00
28606;BME280;46498;49.968;7.754;2022-12-07T08:44:30;97070.00;;;2.42;100.00
28606;BME280;46498;49.968;7.754;2022-12-07T08:49:38;97071.00;;;2.39;100.00
28606;BME280;46498;49.968;7.754;2022-12-07T08:54:41;97082.00;;;2.34;100.00
28606;BME280;46498;49.968;7.754;2022-12-07T08:59:42;97078.00;;;2.40;100.00
28606;BME280;46498;49.968;7.754;2022-12-07T09:04:43;97074.00;;;2.41;100.00
28606;BME280;46498;49.968;7.754;2022-12-07T09:09:44;97074.00;;;2.35;100.00
28606;BME280;46498;49.968;7.754;2022-12-07T09:14:45;97073.00;;;2.42;100.00
28606;BME280;46498;49.968;7.754;2022-12-07T09:19:45;97062.00;;;2.42;100.00
28606;BME280;46498;49.968;7.754;2022-12-07T09:24:46;97065.00;;;2.49;100.00
28606;BME280;46498;49.968;7.754;2022-12-07T09:29:47;97068.00;;;2.56;100.00
28606;BME280;46498;49.968;7.754;2022-12-07T09:34:48;97077.00;;;2.73;100.00
28606;BME280;46498;49.968;7.754;2022-12-07T09:39:49;97073.00;;;3.02;100.00
28606;BME280;46498;49.968;7.754;2022-12-07T09:44:51;97065.00;;;3.14;100.00
28606;BME280;46498;49.968;7.754;2022-12-07T09:49:54;97074.00;;;3.59;100.00
28606;BME280;46498;49.968;7.754;2022-12-07T09:54:56;97077.00;;;3.70;100.00
28606;BME280;46498;49.968;7.754;2022-12-07T10:00:00;97076.00;;;3.49;100.00
28606;BME280;46498;49.968;7.754;2022-12-07T10:05:10;97068.00;;;3.85;100.00
28606;BME280;46498;49.968;7.754;2022-12-07T10:10:16;97067.00;;;3.60;100.00
28606;BME280;46498;49.968;7.754;2022-12-07T10:15:18;97056.00;;;3.74;100.00
28606;BME280;46498;49.968;7.754;2022-12-07T10:20:26;97042.00;;;4.60;100.00
28606;BME280;46498;49.968;7.754;2022-12-07T10:25:38;97040.00;;;4.93;100.00
28606;BME280;46498;49.968;7.754;2022-12-07T10:31:01;97042.00;;;5.39;100.00
28606;BME280;46498;49.968;7.754;2022-12-07T10:36:21;97045.00;;;5.03;100.00
28606;BME280;46498;49.968;7.754;2022-12-07T10:41:23;97041.00;;;4.76;100.00
28606;BME280;46498;49.968;7.754;2022-12-07T10:54:31;97032.00;;;4.51;100.00
28606;BME280;46498;49.968;7.754;2022-12-07T11:03:09;97036.00;;;4.14;100.00
28606;BME280;46498;49.968;7.754;2022-12-07T11:09:21;97026.00;;;3.68;100.00
28606;BME280;46498;49.968;7.754;2022-12-07T11:15:18;97025.00;;;3.44;100.00
28606;BME280;46498;49.968;7.754;2022-12-07T11:22:09;97018.00;;;3.45;100.00
28606;BME280;46498;49.968;7.754;2022-12-07T11:27:32;97009.00;;;3.33;100.00
28606;BME280;46498;49.968;7.754;2022-12-07T11:33:27;97002.00;;;3.60;100.00
28606;BME280;46498;49.968;7.754;2022-12-07T11:38:42;96997.00;;;4.29;100.00
28606;BME280;46498;49.968;7.754;2022-12-07T11:43:58;96995.00;;;4.32;100.00
28606;BME280;46498;49.968;7.754;2022-12-07T11:49:23;96994.00;;;3.74;100.00
28606;BME280;46498;49.968;7.754;2022-12-07T11:54:30;96984.00;;;3.62;100.00
28606;BME280;46498;49.968;7.754;2022-12-07T11:59:45;96975.00;;;3.45;100.00
28606;BME280;46498;49.968;7.754;2022-12-07T12:05:22;96971.00;;;3.40;100.00
28606;BME280;46498;49.968;7.754;2022-12-07T12:11:00;96970.00;;;3.55;100.00
28606;BME280;46498;49.968;7.754;2022-12-07T12:16:18;96962.00;;;4.02;100.00
28606;BME280;46498;49.968;7.754;2022-12-07T12:21:26;96952.00;;;4.77;100.00
28606;BME280;46498;49.968;7.754;2022-12-07T12:26:32;96945.00;;;5.20;95.00
28606;BME280;46498;49.968;7.754;2022-12-07T12:31:40;96943.00;;;5.33;92.97
28606;BME280;46498;49.968;7.754;2022-12-07T12:36:45;96938.00;;;5.09;94.52
28606;BME280;46498;49.968;7.754;2022-12-07T12:41:55;96939.00;;;5.08;94.73
28606;BME280;46498;49.968;7.754;2022-12-07T12:47:43;96934.00;;;5.17;94.45
28606;BME280;46498;49.968;7.754;2022-12-07T12:53:35;96929.00;;;5.84;89.88
28606;BME280;46498;49.968;7.754;2022-12-07T12:58:38;96927.00;;;4.81;94.46
28606;BME280;46498;49.968;7.754;2022-12-07T13:03:52;96921.00;;;4.27;99.93
28606;BME280;46498;49.968;7.754;2022-12-07T13:08:56;96909.00;;;3.94;100.00
28606;BME280;46498;49.968;7.754;2022-12-07T13:26:35;96903.00;;;3.71;100.00
28606;BME280;46498;49.968;7.754;2022-12-07T13:31:54;96905.00;;;4.74;100.00
28606;BME280;46498;49.968;7.754;2022-12-07T13:36:57;96909.00;;;4.40;97.02
28606;BME280;46498;49.968;7.754;2022-12-07T13:41:58;96897.00;;;4.14;98.22
28606;BME280;46498;49.968;7.754;2022-12-07T13:47:16;96900.00;;;3.74;100.00
28606;BME280;46498;49.968;7.754;2022-12-07T13:52:22;96900.00;;;3.67;100.00
28606;BME280;46498;49.968;7.754;2022-12-07T13:57:25;96890.00;;;3.98;100.00
28606;BME280;46498;49.968;7.754;2022-12-07T14:02:29;96898.00;;;4.81;95.66
28606;BME280;46498;49.968;7.754;2022-12-07T14:07:35;96897.00;;;4.34;95.96
28606;BME280;46498;49.968;7.754;2022-12-07T14:12:36;96891.00;;;4.39;96.36
28606;BME280;46498;49.968;7.754;2022-12-07T14:17:52;96894.00;;;4.05;98.91
28606;BME280;46498;49.968;7.754;2022-12-07T14:22:55;96892.00;;;4.07;100.00
28606;BME280;46498;49.968;7.754;2022-12-07T14:27:58;96886.00;;;3.99;99.37
28606;BME280;46498;49.968;7.754;2022-12-07T14:33:02;96884.00;;;3.90;100.00
28606;BME280;46498;49.968;7.754;2022-12-07T14:38:03;96880.00;;;3.56;100.00
28606;BME280;46498;49.968;7.754;2022-12-07T14:43:15;96884.00;;;3.38;100.00
28606;BME280;46498;49.968;7.754;2022-12-07T14:48:16;96874.00;;;3.33;100.00
28606;BME280;46498;49.968;7.754;2022-12-07T14:53:49;96878.00;;;3.25;100.00
28606;BME280;46498;49.968;7.754;2022-12-07T14:58:58;96886.00;;;3.29;100.00
28606;BME280;46498;49.968;7.754;2022-12-07T15:03:59;96879.00;;;3.34;100.00
28606;BME280;46498;49.968;7.754;2022-12-07T15:09:01;96875.00;;;3.32;100.00
28606;BME280;46498;49.968;7.754;2022-12-07T15:14:02;96872.00;;;3.22;100.00
28606;BME280;46498;49.968;7.754;2022-12-07T15:19:16;96874.00;;;3.19;100.00
28606;BME280;46498;49.968;7.754;2022-12-07T15:24:30;96872.00;;;3.17;100.00
28606;BME280;46498;49.968;7.754;2022-12-07T15:29:31;96874.00;;;3.02;100.00
28606;BME280;46498;49.968;7.754;2022-12-07T15:34:31;96868.00;;;2.97;100.00
28606;BME280;46498;49.968;7.754;2022-12-07T15:39:40;96865.00;;;2.91;100.00
28606;BME280;46498;49.968;7.754;2022-12-07T15:44:42;96863.00;;;2.88;100.00
28606;BME280;46498;49.968;7.754;2022-12-07T15:50:04;96856.00;;;2.72;100.00
28606;BME280;46498;49.968;7.754;2022-12-07T15:55:06;96852.00;;;2.67;100.00
28606;BME280;46498;49.968;7.754;2022-12-07T16:00:09;96838.00;;;2.60;100.00
28606;BME280;46498;49.968;7.754;2022-12-07T16:05:10;96834.00;;;2.47;100.00
28606;BME280;46498;49.968;7.754;2022-12-07T16:10:11;96841.00;;;2.48;100.00
28606;BME280;46498;49.968;7.754;2022-12-07T16:15:12;96834.00;;;2.56;100.00
28606;BME280;46498;49.968;7.754;2022-12-07T16:20:13;96830.00;;;2.44;100.00
28606;BME280;46498;49.968;7.754;2022-12-07T16:25:14;96821.00;;;2.41;100.00
28606;BME280;46498;49.968;7.754;2022-12-07T16:30:15;96831.00;;;2.30;100.00
28606;BME280;46498;49.968;7.754;2022-12-07T16:35:19;96829.00;;;2.23;100.00
28606;BME280;46498;49.968;7.754;2022-12-07T16:40:20;96848.00;;;2.17;100.00
28606;BME280;46498;49.968;7.754;2022-12-07T16:45:21;96837.00;;;2.17;100.00
28606;BME280;46498;49.968;7.754;2022-12-07T16:50:21;96832.00;;;2.17;100.00
28606;BME280;46498;49.968;7.754;2022-12-07T16:55:22;96823.00;;;2.14;100.00
28606;BME280;46498;49.968;7.754;2022-12-07T17:00:23;96822.00;;;2.21;100.00
28606;BME280;46498;49.968;7.754;2022-12-07T17:05:25;96822.00;;;2.24;100.00
28606;BME280;46498;49.968;7.754;2022-12-07T17:10:28;96818.00;;;2.25;100.00
28606;BME280;46498;49.968;7.754;2022-12-07T17:15:29;96810.00;;;2.28;100.00
28606;BME280;46498;49.968;7.754;2022-12-07T17:20:30;96803.00;;;2.36;100.00
28606;BME280;46498;49.968;7.754;2022-12-07T17:25:30;96814.00;;;2.31;100.00
28606;BME280;46498;49.968;7.754;2022-12-07T17:30:31;96815.00;;;2.32;100.00
28606;BME280;46498;49.968;7.754;2022-12-07T17:35:32;96808.00;;;2.24;100.00
28606;BME280;46498;49.968;7.754;2022-12-07T17:40:33;96811.00;;;2.28;100.00
28606;BME280;46498;49.968;7.754;2022-12-07T17:45:36;96802.00;;;2.32;100.00
28606;BME280;46498;49.968;7.754;2022-12-07T17:50:38;96799.00;;;2.34;100.00
28606;BME280;46498;49.968;7.754;2022-12-07T17:55:58;96784.00;;;2.34;100.00
28606;BME280;46498;49.968;7.754;2022-12-07T18:01:30;96790.00;;;2.35;100.00
28606;BME280;46498;49.968;7.754;2022-12-07T18:06:36;96772.00;;;2.30;100.00
28606;BME280;46498;49.968;7.754;2022-12-07T18:11:37;96775.00;;;2.28;100.00
28606;BME280;46498;49.968;7.754;2022-12-07T18:16:38;96775.00;;;2.28;100.00
28606;BME280;46498;49.968;7.754;2022-12-07T18:21:39;96772.00;;;2.33;100.00
28606;BME280;46498;49.968;7.754;2022-12-07T18:26:41;96769.00;;;2.20;100.00
28606;BME280;46498;49.968;7.754;2022-12-07T18:31:44;96760.00;;;2.22;100.00
28606;BME280;46498;49.968;7.754;2022-12-07T18:36:48;96764.00;;;2.23;100.00
28606;BME280;46498;49.968;7.754;2022-12-07T18:41:52;96763.00;;;2.14;100.00
28606;BME280;46498;49.968;7.754;2022-12-07T18:46:53;96754.00;;;2.17;100.00
28606;BME280;46498;49.968;7.754;2022-12-07T18:51:54;96748.00;;;2.11;100.00
28606;BME280;46498;49.968;7.754;2022-12-07T18:56:55;96751.00;;;2.13;100.00
28606;BME280;46498;49.968;7.754;2022-12-07T19:01:56;96753.00;;;2.07;100.00
28606;BME280;46498;49.968;7.754;2022-12-07T19:06:57;96758.00;;;2.11;100.00
28606;BME280;46498;49.968;7.754;2022-12-07T19:11:58;96748.00;;;2.11;100.00
28606;BME280;46498;49.968;7.754;2022-12-07T19:17:11;96749.00;;;2.12;100.00
28606;BME280;46498;49.968;7.754;2022-12-07T19:22:16;96744.00;;;2.23;100.00
28606;BME280;46498;49.968;7.754;2022-12-07T19:27:18;96740.00;;;2.20;100.00
28606;BME280;46498;49.968;7.754;2022-12-07T19:32:19;96740.00;;;2.23;100.00
28606;BME280;46498;49.968;7.754;2022-12-07T19:37:21;96743.00;;;2.18;100.00
28606;BME280;46498;49.968;7.754;2022-12-07T19:42:22;96745.00;;;2.18;100.00
28606;BME280;46498;49.968;7.754;2022-12-07T19:47:23;96743.00;;;2.22;100.00
28606;BME280;46498;49.968;7.754;2022-12-07T19:52:23;96727.00;;;2.22;100.00
28606;BME280;46498;49.968;7.754;2022-12-07T19:57:26;96726.00;;;2.14;100.00
28606;BME280;46498;49.968;7.754;2022-12-07T20:02:26;96713.00;;;2.09;100.00
28606;BME280;46498;49.968;7.754;2022-12-07T20:07:27;96703.00;;;2.01;100.00
28606;BME280;46498;49.968;7.754;2022-12-07T20:12:28;96706.00;;;2.00;100.00
28606;BME280;46498;49.968;7.754;2022-12-07T20:17:47;96698.00;;;1.96;100.00
28606;BME280;46498;49.968;7.754;2022-12-07T20:22:48;96700.00;;;1.94;100.00
28606;BME280;46498;49.968;7.754;2022-12-07T20:27:49;96693.00;;;1.97;100.00
28606;BME280;46498;49.968;7.754;2022-12-07T20:32:50;96698.00;;;2.10;100.00
28606;BME280;46498;49.968;7.754;2022-12-07T20:37:51;96691.00;;;2.14;100.00
28606;BME280;46498;49.968;7.754;2022-12-07T20:42:52;96693.00;;;2.07;100.00
28606;BME280;46498;49.968;7.754;2022-12-07T20:47:52;96687.00;;;2.03;100.00
28606;BME280;46498;49.968;7.754;2022-12-07T20:52:53;96690.00;;;2.02;100.00
28606;BME280;46498;49.968;7.754;2022-12-07T20:58:01;96680.00;;;2.07;100.00
28606;BME280;46498;49.968;7.754;2022-12-07T21:03:03;96693.00;;;2.07;100.00
28606;BME280;46498;49.968;7.754;2022-12-07T21:08:04;96692.00;;;2.10;100.00
28606;BME280;46498;49.968;7.754;2022-12-07T21:13:05;96690.00;;;2.21;100.00
28606;BME280;46498;49.968;7.754;2022-12-07T21:18:06;96688.00;;;2.25;100.00
28606;BME280;46498;49.968;7.754;2022-12-07T21:23:08;96681.00;;;2.22;100.00
28606;BME280;46498;49.968;7.754;2022-12-07T21:28:09;96688.00;;;2.24;100.00
28606;BME280;46498;49.968;7.754;2022-12-07T21:33:09;96671.00;;;2.19;100.00
28606;BME280;46498;49.968;7.754;2022-12-07T21:38:10;96667.00;;;2.14;100.00
28606;BME280;46498;49.968;7.754;2022-12-07T21:43:11;96656.00;;;2.20;100.00
28606;BME280;46498;49.968;7.754;2022-12-07T21:48:12;96665.00;;;2.34;100.00
28606;BME280;46498;49.968;7.754;2022-12-07T21:53:13;96655.00;;;2.24;100.00
28606;BME280;46498;49.968;7.754;2022-12-07T21:58:13;96646.00;;;2.22;100.00
28606;BME280;46498;49.968;7.754;2022-12-07T22:03:14;96638.00;;;2.24;100.00
28606;BME280;46498;49.968;7.754;2022-12-07T22:08:15;96638.00;;;2.20;100.00
28606;BME280;46498;49.968;7.754;2022-12-07T22:13:16;96624.00;;;2.23;100.00
28606;BME280;46498;49.968;7.754;2022-12-07T22:18:17;96631.00;;;2.15;100.00
28606;BME280;46498;49.968;7.754;2022-12-07T22:23:18;96634.00;;;2.10;100.00
28606;BME280;46498;49.968;7.754;2022-12-07T22:28:18;96638.00;;;2.06;100.00
28606;BME280;46498;49.968;7.754;2022-12-07T22:33:19;96624.00;;;2.06;100.00
28606;BME280;46498;49.968;7.754;2022-12-07T22:38:20;96624.00;;;2.04;100.00
28606;BME280;46498;49.968;7.754;2022-12-07T22:43:21;96623.00;;;2.10;100.00
28606;BME280;46498;49.968;7.754;2022-12-07T22:48:23;96628.00;;;2.06;100.00
28606;BME280;46498;49.968;7.754;2022-12-07T22:53:25;96620.00;;;2.12;100.00
28606;BME280;46498;49.968;7.754;2022-12-07T22:58:26;96607.00;;;2.07;100.00
28606;BME280;46498;49.968;7.754;2022-12-07T23:03:27;96604.00;;;2.02;100.00
28606;BME280;46498;49.968;7.754;2022-12-07T23:08:29;96596.00;;;2.05;100.00
28606;BME280;46498;49.968;7.754;2022-12-07T23:13:30;96587.00;;;1.99;100.00
28606;BME280;46498;49.968;7.754;2022-12-07T23:18:31;96583.00;;;2.02;100.00
28606;BME280;46498;49.968;7.754;2022-12-07T23:23:32;96578.00;;;1.97;100.00
28606;BME280;46498;49.968;7.754;2022-12-07T23:28:34;96577.00;;;2.03;100.00
28606;BME280;46498;49.968;7.754;2022-12-07T23:33:35;96579.00;;;2.04;100.00
28606;BME280;46498;49.968;7.754;2022-12-07T23:38:37;96569.00;;;2.03;100.00
28606;BME280;46498;49.968;7.754;2022-12-07T23:43:39;96563.00;;;1.96;100.00
28606;BME280;46498;49.968;7.754;2022-12-07T23:48:40;96562.00;;;2.02;100.00
28606;BME280;46498;49.968;7.754;2022-12-07T23:53:44;96557.00;;;2.01;100.00
28606;BME280;46498;49.968;7.754;2022-12-07T23:58:46;96568.00;;;2.06;100.00
